Time;durP1;ratioP1;P1;durP2;ratioP2;P2;SDS_P1;SDS_P2;PMS_P1;PMS_P2;Temp;Humidity;BMP_temperature;BMP_pressure;BME280_temperature;BME280_humidity;BME280_pressure;Samples;Min_cycle;Max_cycle;Signal;HPM_P1;HPM_P2
2023/07/24 00:00:52;;;;;;;9.10;5.00;;;;;;;21.35;56.24;99345.81;4199276;28;23452;-67
2023/07/24 00:03:19;;;;;;;11.83;4.90;;;;;;;21.35;55.93;99347.72;4203283;28;20598;-68
2023/07/24 00:05:46;;;;;;;10.63;4.80;;;;;;;21.40;56.03;99344.22;4200255;28;25953;-67
2023/07/24 00:08:12;;;;;;;13.13;5.30;;;;;;;21.36;55.86;99364.00;4195046;28;22955;-67
2023/07/24 00:10:39;;;;;;;10.83;5.20;;;;;;;21.37;56.30;99362.88;4203072;28;20452;-68
2023/07/24 00:13:07;;;;;;;9.63;4.77;;;;;;;21.21;56.75;99363.69;4193533;28;20262;-67
2023/07/24 00:15:34;;;;;;;11.47;4.90;;;;;;;21.23;56.93;99369.75;4206050;28;20237;-67
2023/07/24 00:18:00;;;;;;;9.07;5.30;;;;;;;21.10;57.59;99370.91;4203852;28;20248;-67
2023/07/24 00:20:27;;;;;;;11.93;5.23;;;;;;;21.09;57.33;99374.72;4210851;28;20232;-67
2023/07/24 00:22:54;;;;;;;8.70;4.30;;;;;;;21.11;57.65;99371.72;4199098;28;20415;-66
2023/07/24 00:25:20;;;;;;;10.03;4.77;;;;;;;21.20;57.57;99373.84;4204249;28;21971;-66
2023/07/24 00:27:47;;;;;;;9.13;4.60;;;;;;;21.17;57.49;99371.59;4199562;28;20243;-66
2023/07/24 00:30:13;;;;;;;11.00;4.80;;;;;;;21.09;57.57;99374.72;4202044;28;20229;-67
2023/07/24 00:32:40;;;;;;;9.57;5.03;;;;;;;21.00;58.01;99374.25;4196943;28;21499;-67
2023/07/24 00:35:07;;;;;;;8.80;4.77;;;;;;;20.89;59.07;99377.88;4203971;28;21314;-67
2023/07/24 00:37:33;;;;;;;8.50;4.90;;;;;;;20.82;59.61;99374.41;4194475;28;20356;-66
2023/07/24 00:40:01;;;;;;;11.27;5.30;;;;;;;20.79;59.83;99373.00;4207547;28;21453;-68
2023/07/24 00:42:28;;;;;;;14.20;5.70;;;;;;;20.74;59.75;99375.59;4192434;28;20232;-68
2023/07/24 00:44:54;;;;;;;9.23;4.93;;;;;;;20.66;59.89;99379.53;4205657;28;20550;-67
2023/07/24 00:47:21;;;;;;;9.37;4.97;;;;;;;20.68;60.09;99382.91;4196419;28;20304;-70
2023/07/24 00:49:48;;;;;;;8.83;4.70;;;;;;;20.57;60.50;99384.56;4195669;28;20236;-67
2023/07/24 00:52:15;;;;;;;12.30;4.90;;;;;;;20.54;60.44;99379.53;4199387;28;20273;-68
2023/07/24 00:54:43;;;;;;;10.37;5.43;;;;;;;20.39;60.81;99374.50;4201862;28;20283;-66
2023/07/24 00:57:10;;;;;;;12.10;4.60;;;;;;;20.30;60.80;99373.22;4201151;28;20286;-68
2023/07/24 00:59:37;;;;;;;12.63;5.07;;;;;;;20.22;61.34;99371.63;4204632;28;20296;-68
2023/07/24 01:02:03;;;;;;;10.47;4.87;;;;;;;20.16;61.48;99371.75;4199720;28;21083;-67
2023/07/24 01:04:30;;;;;;;10.90;5.07;;;;;;;20.23;61.13;99375.22;4203411;28;20296;-69
2023/07/24 01:06:57;;;;;;;12.77;4.73;;;;;;;20.24;61.09;99379.66;4203337;28;20239;-67
2023/07/24 01:09:24;;;;;;;10.60;4.83;;;;;;;20.14;60.94;99376.66;4198051;28;21220;-67
2023/07/24 01:12:17;;;;;;;12.70;4.97;;;;;;;20.05;61.27;99389.91;4201626;28;21752;-68
2023/07/24 01:14:51;;;;;;;10.07;4.73;;;;;;;19.99;60.96;99383.44;4190973;28;20264;-67
2023/07/24 01:17:22;;;;;;;8.30;5.00;;;;;;;19.97;61.15;99390.25;4202862;28;21094;-67
2023/07/24 01:19:53;;;;;;;11.23;4.87;;;;;;;19.99;60.61;99386.19;4193292;28;21733;-68
2023/07/24 01:22:28;;;;;;;8.60;5.10;;;;;;;19.99;60.44;99383.44;4200275;28;20375;-68
2023/07/24 01:25:05;;;;;;;9.57;4.53;;;;;;;19.95;60.53;99394.06;4205968;28;20232;-68
2023/07/24 01:27:31;;;;;;;8.67;4.30;;;;;;;19.94;60.03;99388.78;4207446;28;20236;-68
2023/07/24 01:29:59;;;;;;;9.50;4.70;;;;;;;19.97;59.99;99391.06;4202006;28;21600;-68
2023/07/24 01:32:26;;;;;;;12.90;6.33;;;;;;;19.98;59.92;99386.44;4216506;28;22419;-69
2023/07/24 01:34:53;;;;;;;10.93;4.60;;;;;;;19.98;59.57;99387.25;4207339;28;20235;-68
2023/07/24 01:37:20;;;;;;;8.20;5.20;;;;;;;19.99;59.49;99380.69;4210553;28;20283;-68
2023/07/24 01:39:47;;;;;;;10.03;5.07;;;;;;;20.00;59.23;99390.59;4183620;28;20824;-67
2023/07/24 01:42:14;;;;;;;16.37;4.57;;;;;;;20.07;58.62;99380.34;4206978;28;20236;-68
2023/07/24 01:44:40;;;;;;;9.23;4.20;;;;;;;20.02;58.65;99366.47;4210643;28;20236;-66
2023/07/24 01:47:07;;;;;;;8.00;4.00;;;;;;;19.99;58.19;99368.84;4215121;28;21732;-68
2023/07/24 01:49:34;;;;;;;14.60;4.43;;;;;;;20.09;57.51;99369.94;4214552;28;25607;-66
2023/07/24 01:52:00;;;;;;;9.33;4.77;;;;;;;20.09;57.11;99367.19;4204155;28;20379;-68
2023/07/24 01:54:27;;;;;;;7.87;3.80;;;;;;;20.13;56.86;99375.78;4205384;28;20291;-66
2023/07/24 01:56:53;;;;;;;10.47;4.70;;;;;;;20.19;56.38;99366.63;4205382;28;22049;-69
2023/07/24 01:59:20;;;;;;;10.50;4.17;;;;;;;20.22;56.18;99368.88;4202848;28;20555;-68
2023/07/24 02:01:47;;;;;;;11.33;4.00;;;;;;;20.24;55.87;99366.75;4204323;28;20300;-68
2023/07/24 02:04:13;;;;;;;12.83;3.93;;;;;;;20.22;55.85;99363.38;4185456;28;26081;-67
2023/07/24 02:06:40;;;;;;;8.10;3.70;;;;;;;20.25;55.46;99360.19;4205392;28;22957;-66
2023/07/24 02:09:06;;;;;;;9.97;3.93;;;;;;;20.24;55.37;99364.00;4201447;28;23680;-67
2023/07/24 02:11:33;;;;;;;6.80;3.80;;;;;;;20.24;55.38;99365.91;4206078;28;21916;-68
2023/07/24 02:13:59;;;;;;;16.70;4.20;;;;;;;20.23;55.13;99359.56;4201819;28;20251;-68
2023/07/24 02:16:26;;;;;;;8.83;4.10;;;;;;;20.29;54.80;99349.53;4205771;28;20232;-67
2023/07/24 02:18:53;;;;;;;12.63;4.60;;;;;;;20.26;55.05;99345.38;4205431;28;20414;-67
2023/07/24 02:21:20;;;;;;;9.53;4.37;;;;;;;20.21;54.79;99349.91;4190877;28;20233;-69
2023/07/24 02:23:47;;;;;;;7.20;4.47;;;;;;;20.26;54.72;99356.34;4203692;28;20304;-67
2023/07/24 02:26:13;;;;;;;11.67;4.67;;;;;;;20.17;54.45;99352.28;4208744;28;20232;-69
2023/07/24 02:28:40;;;;;;;9.07;4.10;;;;;;;20.14;54.92;99349.19;4198149;28;20233;-68
2023/07/24 02:31:07;;;;;;;9.03;3.50;;;;;;;20.11;54.72;99354.06;4204207;28;20444;-67
2023/07/24 02:33:33;;;;;;;7.17;3.50;;;;;;;20.11;54.86;99347.75;4201604;28;20312;-67
2023/07/24 02:36:00;;;;;;;7.60;3.93;;;;;;;20.05;55.10;99345.94;4208718;28;20234;-68
2023/07/24 02:38:27;;;;;;;8.30;3.97;;;;;;;20.07;55.01;99352.03;4200249;28;21176;-69
2023/07/24 02:40:53;;;;;;;6.87;3.73;;;;;;;20.02;55.13;99360.97;4204933;28;23505;-68
2023/07/24 02:43:20;;;;;;;7.13;3.73;;;;;;;19.99;55.29;99368.84;4207253;28;20235;-68
2023/07/24 02:45:47;;;;;;;6.90;3.67;;;;;;;19.92;55.58;99371.72;4200159;28;21761;-68
2023/07/24 02:48:13;;;;;;;6.73;3.50;;;;;;;19.85;55.83;99369.06;4208412;28;21790;-69
2023/07/24 02:50:40;;;;;;;7.47;3.83;;;;;;;19.91;55.71;99368.13;4206516;28;21741;-68
2023/07/24 02:53:06;;;;;;;8.13;3.77;;;;;;;19.93;55.88;99373.41;4213073;28;21724;-68
2023/07/24 02:55:33;;;;;;;12.13;3.87;;;;;;;19.84;56.08;99366.53;4224815;28;20224;-68
2023/07/24 02:58:00;;;;;;;6.43;3.63;;;;;;;19.85;56.17;99379.22;4233296;28;20248;-69
2023/07/24 03:00:27;;;;;;;6.97;3.70;;;;;;;19.77;56.45;99370.22;4223445;28;20236;-70
2023/07/24 03:02:54;;;;;;;5.13;3.33;;;;;;;19.79;56.34;99384.53;4249779;28;21760;-68
2023/07/24 03:05:20;;;;;;;12.47;3.40;;;;;;;19.74;56.64;99370.66;4251207;28;22363;-68
2023/07/24 03:07:47;;;;;;;7.47;3.77;;;;;;;19.80;56.39;99366.16;4255067;28;20290;-68
2023/07/24 03:10:14;;;;;;;7.27;3.33;;;;;;;19.88;56.34;99373.25;4255112;28;20414;-68
2023/07/24 03:12:41;;;;;;;9.70;3.60;;;;;;;19.89;56.30;99375.78;4278708;28;20267;-67
2023/07/24 03:15:08;;;;;;;9.23;3.63;;;;;;;19.88;56.13;99376.84;4248033;28;20306;-67
2023/07/24 03:17:35;;;;;;;12.17;4.00;;;;;;;19.88;56.37;99374.09;4236872;28;20836;-67
2023/07/24 03:20:09;;;;;;;7.47;3.70;;;;;;;19.79;56.62;99376.28;4250525;28;22487;-69
2023/07/24 03:22:36;;;;;;;6.70;3.33;;;;;;;19.75;56.56;99383.34;4239863;28;25409;-68
2023/07/24 03:25:03;;;;;;;7.30;3.57;;;;;;;19.75;56.56;99380.59;4250146;28;21744;-67
2023/07/24 03:27:29;;;;;;;6.10;3.37;;;;;;;19.71;56.69;99379.41;4213116;28;21757;-67
2023/07/24 03:29:56;;;;;;;10.63;3.20;;;;;;;19.70;56.95;99388.69;4224258;28;20237;-67
2023/07/24 03:32:22;;;;;;;6.87;3.40;;;;;;;19.72;56.88;99391.19;4223631;28;20453;-66
2023/07/24 03:34:49;;;;;;;8.00;3.60;;;;;;;19.69;56.87;99384.28;4213972;28;20359;-67
2023/07/24 03:37:16;;;;;;;6.77;3.53;;;;;;;19.59;57.15;99382.09;4217709;28;20911;-67
2023/07/24 03:39:42;;;;;;;5.40;3.70;;;;;;;19.68;56.75;99388.09;4220109;28;22357;-67
2023/07/24 03:42:12;;;;;;;7.20;3.27;;;;;;;19.70;56.73;99383.22;4214828;28;21777;-67
2023/07/24 03:44:41;;;;;;;4.87;3.30;;;;;;;19.72;57.10;99388.47;4210018;28;20236;-67
2023/07/24 03:47:08;;;;;;;8.30;3.40;;;;;;;19.79;56.95;99400.19;4216671;28;22777;-67
2023/07/24 03:49:35;;;;;;;7.50;3.27;;;;;;;19.64;57.19;99390.47;4214307;28;20241;-67
2023/07/24 03:52:02;;;;;;;8.00;3.40;;;;;;;19.77;57.02;99394.94;4213761;28;20550;-68
2023/07/24 03:54:28;;;;;;;8.30;3.20;;;;;;;19.71;57.10;99389.53;4211883;28;20233;-67
2023/07/24 03:56:55;;;;;;;7.83;2.93;;;;;;;19.65;57.65;99394.03;4202785;28;20607;-68
2023/07/24 03:59:21;;;;;;;9.30;3.00;;;;;;;19.64;57.27;99393.22;4202570;28;20275;-67
2023/07/24 04:01:48;;;;;;;4.30;2.93;;;;;;;19.61;57.56;99392.84;4211446;28;20243;-68
2023/07/24 04:04:15;;;;;;;13.03;3.97;;;;;;;19.63;57.73;99390.72;4204763;28;21642;-69
2023/07/24 04:06:41;;;;;;;6.10;3.40;;;;;;;19.73;57.57;99401.13;4199858;28;20240;-67
2023/07/24 04:09:08;;;;;;;7.57;3.37;;;;;;;19.78;57.40;99393.00;4195151;28;20236;-67
2023/07/24 04:11:37;;;;;;;6.47;3.60;;;;;;;19.77;57.35;99391.34;4210718;28;20623;-68
2023/07/24 04:14:04;;;;;;;8.23;3.30;;;;;;;19.98;56.84;99389.16;4212511;28;22985;-68
2023/07/24 04:16:30;;;;;;;5.07;3.20;;;;;;;20.02;56.71;99387.63;4192639;28;20236;-68
2023/07/24 04:18:58;;;;;;;8.03;3.30;;;;;;;20.22;56.46;99390.03;4205951;28;20243;-69
2023/07/24 04:21:25;;;;;;;7.07;3.20;;;;;;;20.15;56.34;99397.56;4213392;28;20310;-68
2023/07/24 04:23:52;;;;;;;10.37;3.20;;;;;;;20.14;56.66;99401.38;4204670;28;22531;-67
2023/07/24 04:26:18;;;;;;;5.60;2.90;;;;;;;20.14;57.08;99395.88;4204792;28;20248;-70
2023/07/24 04:28:45;;;;;;;9.47;3.33;;;;;;;20.02;56.88;99399.44;4192106;28;20336;-68
2023/07/24 04:31:12;;;;;;;5.77;3.13;;;;;;;20.09;56.88;99400.16;4208132;28;20312;-68
2023/07/24 04:33:39;;;;;;;7.70;3.10;;;;;;;20.10;57.23;99390.03;4201506;28;20307;-68
2023/07/24 04:36:05;;;;;;;10.10;3.23;;;;;;;20.14;57.04;99399.44;4204025;28;20918;-68
2023/07/24 04:38:32;;;;;;;9.53;3.30;;;;;;;20.17;57.09;99396.25;4212889;28;20241;-66
2023/07/24 04:41:02;;;;;;;6.97;3.17;;;;;;;20.19;57.13;99398.75;4206188;28;20241;-68
2023/07/24 04:43:29;;;;;;;9.67;5.30;;;;;;;20.27;56.94;99395.66;4218152;28;20361;-66
2023/07/24 04:45:55;;;;;;;7.27;3.00;;;;;;;20.37;56.84;99395.91;4203025;28;25469;-66
2023/07/24 04:48:22;;;;;;;8.77;3.50;;;;;;;20.62;56.37;99396.75;4199225;28;21572;-67
2023/07/24 04:50:55;;;;;;;12.83;3.50;;;;;;;20.48;56.43;99390.66;4206512;28;20766;-67
2023/07/24 04:53:22;;;;;;;5.70;3.00;;;;;;;20.61;56.72;99397.81;4208844;28;20236;-67
2023/07/24 04:55:49;;;;;;;10.67;3.33;;;;;;;20.67;56.21;99391.38;4207408;28;20303;-67
2023/07/24 04:58:15;;;;;;;9.17;3.30;;;;;;;20.90;55.26;99396.88;4208237;28;20260;-67
2023/07/24 05:00:42;;;;;;;14.80;3.37;;;;;;;21.08;54.56;99397.81;4223073;28;20239;-67
2023/07/24 05:03:11;;;;;;;5.23;2.87;;;;;;;21.07;54.66;99398.91;4212737;28;20253;-68
2023/07/24 05:05:38;;;;;;;8.80;2.80;;;;;;;21.04;54.90;99404.88;4199234;28;21062;-67
2023/07/24 05:08:08;;;;;;;6.47;3.30;;;;;;;21.10;55.27;99403.94;4212231;28;26110;-68
2023/07/24 05:10:36;;;;;;;5.13;2.83;;;;;;;21.15;54.87;99401.28;4207042;28;20621;-67
2023/07/24 05:13:02;;;;;;;11.17;3.10;;;;;;;21.13;54.74;99392.41;4203857;28;20385;-67
2023/07/24 05:15:29;;;;;;;6.57;2.90;;;;;;;21.07;54.51;99393.38;4207454;28;20233;-67
2023/07/24 05:17:56;;;;;;;6.37;3.00;;;;;;;21.11;54.82;99399.25;4209311;28;20250;-68
2023/07/24 05:20:23;;;;;;;7.53;3.00;;;;;;;21.05;54.79;99399.16;4213347;28;20306;-67
2023/07/24 05:22:49;;;;;;;9.33;2.93;;;;;;;21.04;54.37;99397.47;4209610;28;23833;-66
2023/07/24 05:25:16;;;;;;;6.80;2.73;;;;;;;21.01;54.74;99397.13;4211317;28;23196;-66
2023/07/24 05:27:43;;;;;;;6.53;3.23;;;;;;;21.18;54.59;99394.44;4211243;28;20737;-67
2023/07/24 05:30:11;;;;;;;7.30;3.17;;;;;;;21.17;54.32;99388.13;4219195;28;20287;-67
2023/07/24 05:32:38;;;;;;;8.53;3.23;;;;;;;20.95;55.56;99393.41;4206780;28;20411;-67
2023/07/24 05:35:05;;;;;;;9.00;3.20;;;;;;;21.05;55.05;99393.63;4214681;28;21644;-68
2023/07/24 05:37:31;;;;;;;8.47;3.40;;;;;;;21.01;55.66;99399.88;4206277;28;20229;-67
2023/07/24 05:39:59;;;;;;;12.73;3.23;;;;;;;20.92;55.80;99404.06;4213892;28;20333;-67
2023/07/24 05:42:26;;;;;;;4.93;2.60;;;;;;;21.14;54.63;99402.34;4208623;28;20240;-67
2023/07/24 05:44:52;;;;;;;10.33;2.93;;;;;;;20.93;55.12;99406.56;4202974;28;20232;-68
2023/07/24 05:47:19;;;;;;;7.30;3.10;;;;;;;21.00;54.85;99412.78;4217564;28;20312;-69
2023/07/24 05:49:45;;;;;;;8.60;3.50;;;;;;;20.99;54.85;99402.00;4193435;28;20896;-67
2023/07/24 05:52:12;;;;;;;7.87;3.80;;;;;;;20.90;55.01;99412.56;4213363;28;20240;-67
2023/07/24 05:54:39;;;;;;;10.60;3.10;;;;;;;20.90;54.80;99415.31;4202082;28;21344;-68
2023/07/24 05:57:06;;;;;;;6.97;2.90;;;;;;;20.99;54.86;99421.28;4211369;28;22998;-68
2023/07/24 05:59:33;;;;;;;7.10;2.97;;;;;;;20.95;55.28;99418.16;4217952;28;20242;-69
2023/07/24 06:01:59;;;;;;;6.80;3.08;;;;;;;21.15;55.15;99419.72;4212411;28;20236;-67
2023/07/24 06:04:26;;;;;;;9.43;3.47;;;;;;;21.35;54.76;99422.88;4202645;28;24360;-69
2023/07/24 06:06:53;;;;;;;11.63;2.95;;;;;;;21.29;54.75;99432.13;4202741;28;20241;-67
2023/07/24 06:09:19;;;;;;;4.37;2.80;;;;;;;21.24;53.96;99423.72;4210628;28;20803;-68
2023/07/24 06:11:47;;;;;;;13.73;3.90;;;;;;;21.02;54.85;99424.38;4199402;28;20225;-66
2023/07/24 06:14:14;;;;;;;7.87;3.23;;;;;;;20.81;55.73;99414.81;4216027;28;23020;-68
2023/07/24 06:16:41;;;;;;;7.07;2.97;;;;;;;20.87;55.37;99419.38;4201769;28;25417;-67
2023/07/24 06:19:07;;;;;;;11.63;3.17;;;;;;;20.84;55.75;99419.03;4208752;28;20274;-67
2023/07/24 06:21:34;;;;;;;6.33;2.80;;;;;;;20.83;55.82;99420.94;4206855;28;21520;-69
2023/07/24 06:24:01;;;;;;;10.10;3.53;;;;;;;21.02;55.32;99421.63;4213481;28;20436;-67
2023/07/24 06:26:28;;;;;;;4.63;2.73;;;;;;;21.12;55.14;99414.69;4211589;28;20241;-69
2023/07/24 06:28:55;;;;;;;5.77;3.00;;;;;;;21.37;54.16;99415.19;4208781;28;20617;-67
2023/07/24 06:31:22;;;;;;;9.20;3.10;;;;;;;21.37;54.60;99414.38;4214426;28;20302;-66
2023/07/24 06:33:48;;;;;;;7.67;3.60;;;;;;;21.81;53.61;99414.72;4213486;28;20242;-68
2023/07/24 06:36:15;;;;;;;7.17;2.90;;;;;;;22.10;52.63;99411.91;4201621;28;20240;-68
2023/07/24 06:38:42;;;;;;;6.20;3.03;;;;;;;21.88;53.27;99416.47;4215655;28;21352;-67
2023/07/24 06:41:09;;;;;;;9.18;3.00;;;;;;;21.70;53.61;99407.34;4211746;28;20235;-68
2023/07/24 06:43:35;;;;;;;8.80;3.23;;;;;;;21.60;53.67;99412.66;4195308;28;20236;-69
2023/07/24 06:46:02;;;;;;;7.43;3.50;;;;;;;21.51;54.37;99407.50;4213960;28;21301;-73
2023/07/24 06:48:29;;;;;;;11.52;3.00;;;;;;;21.63;53.30;99410.25;4215404;28;24817;-74
2023/07/24 06:50:55;;;;;;;9.90;2.90;;;;;;;21.83;53.15;99422.72;4194864;28;20251;-72
2023/07/24 06:53:22;;;;;;;6.03;2.67;;;;;;;21.64;53.98;99427.63;4204129;28;20234;-73
2023/07/24 06:55:48;;;;;;;6.53;3.00;;;;;;;21.61;53.55;99415.16;4218324;28;22045;-74
2023/07/24 06:58:15;;;;;;;8.57;2.90;;;;;;;21.63;53.75;99423.19;4221075;28;21587;-73
2023/07/24 07:00:41;;;;;;;7.95;3.10;;;;;;;21.61;54.57;99420.66;4209505;28;21385;-70
2023/07/24 07:03:08;;;;;;;7.13;2.87;;;;;;;21.60;53.43;99413.47;4218004;28;20249;-70
2023/07/24 07:05:35;;;;;;;9.18;3.15;;;;;;;21.96;53.03;99408.66;4214678;28;22486;-72
2023/07/24 07:08:02;;;;;;;11.27;3.17;;;;;;;22.35;52.41;99410.69;4216854;28;20237;-71
2023/07/24 07:10:30;;;;;;;8.67;2.73;;;;;;;22.72;50.81;99410.19;4232077;28;20241;-70
2023/07/24 07:12:57;;;;;;;6.03;3.03;;;;;;;23.63;47.95;99410.84;4233559;28;20641;-70
2023/07/24 07:15:24;;;;;;;6.63;3.10;;;;;;;23.48;48.73;99405.97;4247152;28;20329;-68
2023/07/24 07:17:51;;;;;;;7.30;3.07;;;;;;;23.56;48.61;99407.44;4220644;28;20243;-70
2023/07/24 07:20:18;;;;;;;5.72;2.72;;;;;;;23.64;48.61;99404.22;4218028;28;20232;-72
2023/07/24 07:22:44;;;;;;;6.95;3.05;;;;;;;24.06;47.79;99408.25;4200109;28;20613;-71
2023/07/24 07:25:11;;;;;;;6.28;2.80;;;;;;;23.80;48.04;99405.19;4215003;28;20302;-72
2023/07/24 07:27:38;;;;;;;7.77;2.90;;;;;;;23.33;48.70;99409.38;4207698;28;20225;-71
2023/07/24 07:30:06;;;;;;;7.88;2.75;;;;;;;23.70;48.23;99405.94;4216032;28;21917;-71
2023/07/24 07:32:33;;;;;;;5.13;2.53;;;;;;;23.86;48.20;99403.34;4206707;28;20556;-71
2023/07/24 07:34:59;;;;;;;5.82;2.83;;;;;;;24.09;47.66;99398.59;4213655;28;20246;-72
2023/07/24 07:37:26;;;;;;;4.97;2.60;;;;;;;24.26;47.10;99399.31;4213859;28;20248;-71
2023/07/24 07:39:53;;;;;;;6.65;2.60;;;;;;;23.90;47.59;99399.78;4209406;28;20232;-70
2023/07/24 07:42:19;;;;;;;5.22;2.65;;;;;;;24.14;46.68;99387.59;4204676;28;20233;-72
2023/07/24 07:44:46;;;;;;;6.33;2.30;;;;;;;23.78;47.65;99403.81;4207961;28;20229;-72
2023/07/24 07:47:13;;;;;;;6.45;2.63;;;;;;;23.65;47.55;99402.28;4214030;28;20679;-74
2023/07/24 07:49:40;;;;;;;6.97;2.28;;;;;;;23.58;47.50;99397.78;4206809;28;20237;-70
2023/07/24 07:52:06;;;;;;;5.43;2.20;;;;;;;23.74;48.71;99409.88;4221405;28;21105;-69
2023/07/24 07:54:33;;;;;;;5.20;2.33;;;;;;;24.06;47.07;99405.50;4230686;28;20247;-69
2023/07/24 07:57:00;;;;;;;6.90;2.47;;;;;;;24.18;47.47;99411.69;4250676;28;21400;-69
2023/07/24 07:59:27;;;;;;;6.63;2.20;;;;;;;24.44;46.86;99400.00;4225510;28;21890;-69
2023/07/24 08:01:54;;;;;;;5.88;2.42;;;;;;;24.43;46.33;99407.47;4202138;28;21319;-70
2023/07/24 08:04:21;;;;;;;4.77;2.57;;;;;;;24.45;46.01;99401.66;4211495;28;21616;-69
2023/07/24 08:06:47;;;;;;;9.82;2.95;;;;;;;23.74;46.98;99412.63;4219204;28;20241;-72
2023/07/24 08:09:14;;;;;;;4.38;2.95;;;;;;;23.44;48.55;99404.00;4197879;28;20304;-69
2023/07/24 08:11:40;;;;;;;4.80;2.67;;;;;;;24.05;46.96;99399.16;4211023;28;21749;-70
2023/07/24 08:14:07;;;;;;;5.73;2.90;;;;;;;24.16;46.93;99399.22;4210732;28;20287;-70
2023/07/24 08:16:33;;;;;;;4.83;2.70;;;;;;;24.16;46.44;99400.06;4231074;28;25703;-74
2023/07/24 08:19:01;;;;;;;4.27;2.40;;;;;;;24.41;46.39;99403.31;4216961;28;20235;-70
2023/07/24 08:21:27;;;;;;;5.27;2.70;;;;;;;24.70;45.97;99405.75;4217771;28;20287;-71
2023/07/24 08:23:54;;;;;;;9.93;2.85;;;;;;;24.29;46.98;99409.84;4214032;28;20637;-78
2023/07/24 08:26:21;;;;;;;5.57;2.72;;;;;;;24.33;46.23;99405.47;4234638;28;20247;-72
2023/07/24 08:28:47;;;;;;;5.50;2.33;;;;;;;24.73;45.58;99405.22;4243061;28;20683;-73
2023/07/24 08:31:14;;;;;;;7.05;2.28;;;;;;;24.54;45.76;99400.06;4234830;28;20233;-70
2023/07/24 08:33:41;;;;;;;6.00;2.78;;;;;;;24.23;46.69;99397.06;4229679;28;20581;-74
2023/07/24 08:36:08;;;;;;;6.97;2.37;;;;;;;24.81;45.89;99390.88;4253848;28;23073;-70
2023/07/24 08:38:35;;;;;;;10.30;2.40;;;;;;;25.39;44.55;99390.06;4246440;28;20629;-68
2023/07/24 08:41:06;;;;;;;6.00;2.63;;;;;;;25.71;42.87;99383.53;4248748;28;20532;-71
2023/07/24 08:43:35;;;;;;;4.28;2.15;;;;;;;25.81;43.38;99388.25;4237097;28;23136;-70
2023/07/24 08:46:03;;;;;;;5.47;2.93;;;;;;;26.12;41.83;99386.34;4216234;28;20327;-70
2023/07/24 08:48:35;;;;;;;6.97;2.67;;;;;;;26.63;40.83;99392.97;4217955;28;20331;-70
2023/07/24 08:51:09;;;;;;;4.78;2.60;;;;;;;26.16;42.07;99392.19;4238602;28;20239;-68
2023/07/24 08:53:38;;;;;;;5.25;2.40;;;;;;;26.49;41.24;99384.41;4203477;28;20233;-69
2023/07/24 08:56:09;;;;;;;9.13;2.50;;;;;;;25.92;42.93;99385.22;4226360;28;21085;-68
2023/07/24 08:58:36;;;;;;;5.40;2.35;;;;;;;25.81;42.75;99389.06;4233768;28;22152;-70
2023/07/24 09:01:03;;;;;;;4.82;2.85;;;;;;;26.00;42.58;99380.22;4221071;28;20236;-72
2023/07/24 09:03:31;;;;;;;10.13;3.27;;;;;;;26.12;42.61;99382.75;4200178;28;20240;-70
2023/07/24 09:06:01;;;;;;;4.77;2.43;;;;;;;25.68;43.57;99373.78;4221876;28;20307;-68
2023/07/24 09:08:34;;;;;;;4.27;2.20;;;;;;;26.06;42.83;99371.63;4230344;28;22615;-73
2023/07/24 09:11:02;;;;;;;4.28;2.67;;;;;;;26.36;42.23;99374.72;4221116;28;20418;-70
2023/07/24 09:13:29;;;;;;;3.28;2.17;;;;;;;26.32;41.64;99365.28;4225274;28;20642;-68
2023/07/24 09:15:56;;;;;;;6.50;2.50;;;;;;;25.99;42.50;99359.97;4232472;28;20533;-72
2023/07/24 09:18:23;;;;;;;5.78;2.42;;;;;;;26.34;42.18;99360.28;4219195;28;20236;-73
2023/07/24 09:20:50;;;;;;;3.83;2.20;;;;;;;26.56;41.72;99360.81;4232469;28;20232;-75
2023/07/24 09:23:27;;;;;;;5.37;2.10;;;;;;;26.36;43.49;99366.38;4223429;28;20496;-72
2023/07/24 09:25:54;;;;;;;6.63;2.30;;;;;;;26.11;43.90;99348.63;4221279;28;20686;-72
2023/07/24 09:28:21;;;;;;;5.17;2.30;;;;;;;26.91;41.64;99354.66;4227335;28;20521;-70
2023/07/24 09:30:52;;;;;;;3.72;2.40;;;;;;;27.56;40.27;99357.44;4212872;28;20347;-70
2023/07/24 09:33:19;;;;;;;6.40;2.10;;;;;;;26.87;42.09;99359.94;4223878;28;20297;-73
2023/07/24 09:35:57;;;;;;;6.28;2.47;;;;;;;26.57;42.31;99354.16;4229416;28;22244;-72
2023/07/24 09:38:25;;;;;;;3.00;2.08;;;;;;;27.03;41.45;99356.00;4245887;28;20233;-70
2023/07/24 09:40:52;;;;;;;5.68;2.30;;;;;;;26.47;42.49;99356.97;4255710;28;20240;-72
2023/07/24 09:43:24;;;;;;;3.92;2.20;;;;;;;26.26;42.90;99340.31;4237217;28;20835;-70
2023/07/24 09:46:09;;;;;;;4.50;2.00;;;;;;;26.82;41.04;99334.94;4250969;28;20592;-75
2023/07/24 09:48:37;;;;;;;4.30;2.30;;;;;;;27.29;39.73;99330.03;4246908;28;20723;-68
2023/07/24 09:51:12;;;;;;;3.25;2.28;;;;;;;27.79;38.89;99322.53;4255191;28;20385;-67
2023/07/24 09:53:43;;;;;;;4.05;2.20;;;;;;;27.97;38.89;99317.38;4238256;28;20241;-68
2023/07/24 09:56:10;;;;;;;8.43;2.40;;;;;;;27.38;39.77;99317.19;4227503;28;20457;-67
2023/07/24 09:58:38;;;;;;;5.63;2.20;;;;;;;26.64;41.79;99320.56;4216336;28;20233;-67
2023/07/24 10:01:07;;;;;;;2.83;2.00;;;;;;;27.17;42.15;99322.03;4225601;28;20235;-66
2023/07/24 10:03:35;;;;;;;5.10;2.30;;;;;;;26.99;42.86;99316.00;4242110;28;20517;-67
2023/07/24 10:06:02;;;;;;;3.90;2.13;;;;;;;27.67;39.64;99306.19;4224116;28;20237;-66
2023/07/24 10:08:29;;;;;;;3.22;2.10;;;;;;;27.47;40.72;99303.56;4223599;28;20232;-68
2023/07/24 10:10:59;;;;;;;11.60;2.43;;;;;;;28.04;39.14;99297.56;4215622;28;20622;-68
2023/07/24 10:13:26;;;;;;;2.83;2.00;;;;;;;27.98;39.58;99296.78;4212522;28;20245;-67
2023/07/24 10:15:53;;;;;;;3.88;2.03;;;;;;;28.31;38.47;99291.50;4213225;28;20241;-68
2023/07/24 10:18:26;;;;;;;5.68;2.50;;;;;;;27.92;38.94;99292.38;4220700;28;20303;-65
2023/07/24 10:21:04;;;;;;;5.63;2.53;;;;;;;28.14;39.11;99292.75;4248137;28;22574;-66
2023/07/24 10:23:35;;;;;;;6.53;2.55;;;;;;;28.01;39.03;99281.47;4211831;28;20232;-67
2023/07/24 10:26:05;;;;;;;4.40;2.42;;;;;;;27.67;40.89;99283.16;4230296;28;20233;-68
2023/07/24 10:28:39;;;;;;;6.03;2.28;;;;;;;28.23;39.07;99284.63;4224475;28;20312;-65
2023/07/24 10:31:19;;;;;;;9.27;2.45;;;;;;;28.44;37.56;99276.88;4263557;28;21112;-70
2023/07/24 10:33:46;;;;;;;5.75;2.60;;;;;;;28.38;37.75;99283.63;4228526;28;20751;-66
2023/07/24 10:36:19;;;;;;;10.77;2.80;;;;;;;28.66;36.99;99277.47;4216101;28;20832;-66
2023/07/24 10:38:46;;;;;;;7.78;2.78;;;;;;;28.20;37.46;99271.28;4219782;28;25014;-67
2023/07/24 10:41:13;;;;;;;7.28;2.80;;;;;;;28.11;38.08;99261.91;4221332;28;20964;-66
2023/07/24 10:43:50;;;;;;;8.70;3.00;;;;;;;28.31;37.77;99263.66;4213955;28;20335;-67
2023/07/24 10:46:18;;;;;;;5.97;2.42;;;;;;;28.44;37.84;99265.75;4210449;28;25064;-65
2023/07/24 10:48:47;;;;;;;11.18;2.72;;;;;;;28.71;36.72;99260.72;4222559;28;20559;-67
2023/07/24 10:51:14;;;;;;;6.45;2.63;;;;;;;28.26;38.11;99250.63;4194050;28;21492;-64
2023/07/24 10:53:46;;;;;;;9.45;2.30;;;;;;;27.82;38.89;99237.69;4227635;28;20565;-65
2023/07/24 10:56:13;;;;;;;9.25;3.08;;;;;;;27.70;40.02;99238.06;4215298;28;20342;-66
2023/07/24 10:58:40;;;;;;;7.07;3.35;;;;;;;28.02;39.36;99239.44;4209557;28;22717;-66
2023/07/24 11:01:08;;;;;;;6.32;2.60;;;;;;;28.50;37.59;99235.09;4238049;28;20893;-65
2023/07/24 11:03:36;;;;;;;7.78;2.75;;;;;;;28.87;36.77;99236.31;4220597;28;20619;-68
2023/07/24 11:06:03;;;;;;;6.45;2.70;;;;;;;28.93;36.23;99235.94;4216291;28;20256;-68
2023/07/24 11:08:31;;;;;;;7.03;2.78;;;;;;;29.09;35.65;99224.56;4231254;28;20418;-67
2023/07/24 11:11:00;;;;;;;6.88;3.00;;;;;;;29.39;35.68;99222.47;4213630;28;21175;-66
2023/07/24 11:13:28;;;;;;;5.18;2.95;;;;;;;29.43;35.19;99217.97;4219682;28;20233;-66
2023/07/24 11:15:55;;;;;;;4.97;2.90;;;;;;;29.28;35.22;99213.41;4215479;28;22898;-67
2023/07/24 11:18:24;;;;;;;11.73;2.85;;;;;;;29.07;35.96;99224.06;4218921;28;23560;-66
2023/07/24 11:20:57;;;;;;;6.05;2.85;;;;;;;28.66;34.53;99219.00;4220921;28;20240;-67
2023/07/24 11:23:24;;;;;;;7.65;3.55;;;;;;;28.20;35.67;99215.63;4214414;28;25156;-65
2023/07/24 11:25:54;;;;;;;6.05;3.03;;;;;;;28.25;35.69;99209.19;4204246;28;20469;-66
2023/07/24 11:28:21;;;;;;;6.87;2.97;;;;;;;28.64;35.33;99205.38;4212712;28;20240;-70
2023/07/24 11:30:47;;;;;;;5.32;2.50;;;;;;;28.73;34.92;99205.56;4215523;28;20366;-65
2023/07/24 11:33:15;;;;;;;4.93;2.75;;;;;;;28.77;35.01;99203.88;4222823;28;20229;-68